createdAt,value
2023-05-22T00:00:45.110Z,14.77
2023-05-22T00:03:11.382Z,13.52
2023-05-22T00:05:43.860Z,15.18
2023-05-22T00:08:10.086Z,12.82
2023-05-22T00:10:47.029Z,11.60
2023-05-22T00:13:13.459Z,12.77
2023-05-22T00:15:42.603Z,12.18
2023-05-22T00:18:09.070Z,12.77
2023-05-22T00:20:35.397Z,12.80
2023-05-22T00:23:01.638Z,10.82
2023-05-22T00:25:30.514Z,11.98
2023-05-22T00:27:59.404Z,11.38
2023-05-22T00:30:25.701Z,13.38
2023-05-22T00:32:51.945Z,12.20
2023-05-22T00:35:18.297Z,12.20
2023-05-22T00:37:44.546Z,12.90
2023-05-22T00:40:11.119Z,14.05
2023-05-22T00:42:37.388Z,14.02
2023-05-22T00:45:07.376Z,14.48
2023-05-22T00:47:33.663Z,14.15
2023-05-22T00:50:02.352Z,14.30
2023-05-22T00:52:28.771Z,15.05
2023-05-22T00:54:56.315Z,13.70
2023-05-22T00:57:23.053Z,15.55
2023-05-22T00:59:50.723Z,15.88
2023-05-22T01:02:20.432Z,16.83
2023-05-22T01:04:47.331Z,15.80
2023-05-22T01:07:14.230Z,16.50
2023-05-22T01:09:47.833Z,16.50
2023-05-22T01:12:27.077Z,13.52
2023-05-22T01:14:53.350Z,14.15
2023-05-22T01:17:36.354Z,16.05
2023-05-22T01:20:05.681Z,14.60
2023-05-22T01:22:37.706Z,15.15
2023-05-22T01:25:19.541Z,14.95
2023-05-22T01:28:01.160Z,14.32
2023-05-22T01:30:48.129Z,14.52
2023-05-22T01:35:45.181Z,14.20
2023-05-22T01:38:12.299Z,16.02
2023-05-22T01:40:39.477Z,14.35
2023-05-22T01:43:06.221Z,14.45
2023-05-22T01:45:32.584Z,15.10
2023-05-22T01:48:00.057Z,14.95
2023-05-22T01:50:29.073Z,14.52
2023-05-22T01:53:14.640Z,14.13
2023-05-22T01:55:54.590Z,14.48
2023-05-22T01:58:28.712Z,15.30
2023-05-22T02:00:56.091Z,16.80
2023-05-22T02:03:23.175Z,14.80
2023-05-22T02:05:53.243Z,16.90
2023-05-22T02:08:20.893Z,17.27
2023-05-22T02:10:48.609Z,15.73
2023-05-22T02:13:20.891Z,15.15
2023-05-22T02:15:47.522Z,16.17
2023-05-22T02:18:19.246Z,15.13
2023-05-22T02:20:49.805Z,14.95
2023-05-22T02:23:16.117Z,14.32
2023-05-22T02:25:42.386Z,15.25
2023-05-22T02:28:08.681Z,14.27
2023-05-22T02:30:34.956Z,14.05
2023-05-22T02:33:04.070Z,11.85
2023-05-22T02:35:30.399Z,15.10
2023-05-22T02:37:56.831Z,15.27
2023-05-22T02:40:23.108Z,13.85
2023-05-22T02:42:49.582Z,14.32
2023-05-22T02:45:16.910Z,13.68
2023-05-22T02:47:43.417Z,14.20
2023-05-22T02:50:10.168Z,15.70
2023-05-22T02:52:37.032Z,13.63
2023-05-22T02:55:04.004Z,14.20
2023-05-22T02:57:30.460Z,11.63
2023-05-22T02:59:56.964Z,13.15
2023-05-22T03:02:25.776Z,14.27
2023-05-22T03:04:52.411Z,14.05
2023-05-22T03:07:18.913Z,15.23
2023-05-22T03:09:45.453Z,15.65
2023-05-22T03:12:16.151Z,15.80
2023-05-22T03:14:42.638Z,14.60
2023-05-22T03:17:10.055Z,16.02
2023-05-22T03:19:40.430Z,15.25
2023-05-22T03:24:42.547Z,13.80
2023-05-22T03:27:10.317Z,16.02
2023-05-22T03:29:37.683Z,15.55
2023-05-22T03:32:06.341Z,16.08
2023-05-22T03:34:32.589Z,16.27
2023-05-22T03:36:59.021Z,14.60
2023-05-22T03:39:27.646Z,16.50
2023-05-22T03:41:56.872Z,16.88
2023-05-22T03:44:23.170Z,14.27
2023-05-22T03:46:49.605Z,15.00
2023-05-22T03:49:15.889Z,15.13
2023-05-22T03:51:42.319Z,15.68
2023-05-22T03:54:08.562Z,14.30
2023-05-22T03:56:35.191Z,14.52
2023-05-22T03:59:04.209Z,13.55
2023-05-22T04:01:30.459Z,15.65
2023-05-22T04:03:56.799Z,13.43
2023-05-22T04:06:23.112Z,14.85
2023-05-22T04:08:49.418Z,12.57
2023-05-22T04:11:19.622Z,15.45
2023-05-22T04:13:46.046Z,14.10
2023-05-22T04:16:19.442Z,14.07
2023-05-22T04:18:45.743Z,15.25
2023-05-22T04:21:17.222Z,14.38
2023-05-22T04:23:43.616Z,14.35
2023-05-22T04:26:09.958Z,15.73
2023-05-22T04:28:38.626Z,12.55
2023-05-22T04:31:04.984Z,12.27
2023-05-22T04:33:31.307Z,13.55
2023-05-22T04:36:05.228Z,12.40
2023-05-22T04:38:31.481Z,14.38
2023-05-22T04:41:01.913Z,12.57
2023-05-22T04:43:28.138Z,14.80
2023-05-22T04:45:59.862Z,16.02
2023-05-22T04:48:26.189Z,14.95
2023-05-22T04:50:57.863Z,15.50
2023-05-22T04:53:26.541Z,15.13
2023-05-22T04:55:52.889Z,15.70
2023-05-22T04:58:19.730Z,14.88
2023-05-22T05:00:46.272Z,15.82
2023-05-22T05:03:12.638Z,15.98
2023-05-22T05:05:39.006Z,17.70
2023-05-22T05:08:05.687Z,16.50
2023-05-22T05:10:33.198Z,18.70
2023-05-22T05:13:02.427Z,17.85
2023-05-22T05:15:31.750Z,17.98
2023-05-22T05:17:58.125Z,16.92
2023-05-22T05:20:24.514Z,17.95
2023-05-22T05:22:51.014Z,15.27
2023-05-22T05:25:17.437Z,17.35
2023-05-22T05:27:47.421Z,17.40
2023-05-22T05:30:20.190Z,17.05
2023-05-22T05:32:48.357Z,15.07
2023-05-22T05:35:14.816Z,16.23
2023-05-22T05:37:43.221Z,18.00
2023-05-22T05:40:10.676Z,14.68
2023-05-22T05:42:36.975Z,17.02
2023-05-22T05:45:03.291Z,15.65
2023-05-22T05:47:32.175Z,18.20
2023-05-22T05:50:05.281Z,16.92
2023-05-22T05:52:36.113Z,15.63
2023-05-22T05:55:03.757Z,14.75
2023-05-22T05:57:31.078Z,16.00
2023-05-22T06:00:00.124Z,14.63
2023-05-22T06:02:30.963Z,13.63
2023-05-22T06:04:59.778Z,16.70
2023-05-22T06:07:28.763Z,14.48
2023-05-22T06:09:55.061Z,13.73
2023-05-22T06:12:21.366Z,14.15
2023-05-22T06:14:47.686Z,13.15
2023-05-22T06:17:16.869Z,14.15
2023-05-22T06:19:43.247Z,13.88
2023-05-22T06:22:12.088Z,14.35
2023-05-22T06:24:38.569Z,13.50
2023-05-22T06:27:07.197Z,13.20
2023-05-22T06:29:42.511Z,13.60
2023-05-22T06:32:11.075Z,15.00
2023-05-22T06:34:37.431Z,13.10
2023-05-22T06:37:06.295Z,12.73
2023-05-22T06:39:32.747Z,13.40
2023-05-22T06:41:59.385Z,14.30
2023-05-22T06:44:25.678Z,14.38
2023-05-22T06:46:52.509Z,14.50
2023-05-22T06:49:19.024Z,14.90
2023-05-22T06:51:49.231Z,14.30
2023-05-22T06:56:42.249Z,12.85
2023-05-22T06:59:11.754Z,13.75
2023-05-22T07:01:38.235Z,13.07
2023-05-22T07:04:14.852Z,13.73
2023-05-22T07:06:42.565Z,11.82
2023-05-22T07:09:11.672Z,12.45
2023-05-22T07:11:39.180Z,12.60
2023-05-22T07:14:05.684Z,11.43
2023-05-22T07:16:32.210Z,12.63
2023-05-22T07:18:58.714Z,12.23
2023-05-22T07:21:25.188Z,12.90
2023-05-22T07:23:52.300Z,11.98
2023-05-22T07:26:18.989Z,11.75
2023-05-22T07:28:45.441Z,11.73
2023-05-22T07:31:11.900Z,11.45
2023-05-22T07:33:38.425Z,11.88
2023-05-22T07:36:05.068Z,11.05
2023-05-22T07:38:31.791Z,11.55
2023-05-22T07:40:58.505Z,11.38
2023-05-22T07:43:26.030Z,11.35
2023-05-22T07:45:52.543Z,11.70
2023-05-22T07:48:19.138Z,12.43
2023-05-22T07:50:45.737Z,12.10
2023-05-22T07:53:12.397Z,10.98
2023-05-22T07:55:39.096Z,11.80
2023-05-22T07:58:06.191Z,11.32
2023-05-22T08:00:32.760Z,11.55
2023-05-22T08:02:59.506Z,12.13
2023-05-22T08:05:26.079Z,11.77
2023-05-22T08:07:52.609Z,10.82
2023-05-22T08:10:19.398Z,11.15
2023-05-22T08:12:45.975Z,11.75
2023-05-22T08:15:12.581Z,10.65
2023-05-22T08:17:39.116Z,11.93
2023-05-22T08:20:06.073Z,11.50
2023-05-22T08:22:35.768Z,10.65
2023-05-22T08:25:02.553Z,11.48
2023-05-22T08:27:29.469Z,11.85
2023-05-22T08:29:57.234Z,11.85
2023-05-22T08:32:23.899Z,11.88
2023-05-22T08:34:50.672Z,11.60
2023-05-22T08:37:17.141Z,11.38
2023-05-22T08:39:44.087Z,11.75
2023-05-22T08:42:10.600Z,12.00
2023-05-22T08:44:37.280Z,10.80
2023-05-22T08:47:06.027Z,13.02
2023-05-22T08:49:32.654Z,11.82
2023-05-22T08:52:07.914Z,12.07
2023-05-22T08:54:36.751Z,12.65
2023-05-22T08:57:03.462Z,11.15
2023-05-22T08:59:30.666Z,12.93
2023-05-22T09:01:57.940Z,12.40
2023-05-22T09:04:25.510Z,12.50
2023-05-22T09:06:52.008Z,11.65
2023-05-22T09:09:18.502Z,11.88
2023-05-22T09:11:44.938Z,11.13
2023-05-22T09:14:13.460Z,10.38
2023-05-22T09:16:52.785Z,11.63
2023-05-22T09:19:19.181Z,10.40
2023-05-22T09:21:48.506Z,10.68
2023-05-22T09:24:14.770Z,10.32
2023-05-22T09:26:43.797Z,10.05
2023-05-22T09:29:13.113Z,11.68
2023-05-22T09:31:43.148Z,10.38
2023-05-22T09:34:10.169Z,10.38
2023-05-22T09:36:36.457Z,9.73
2023-05-22T09:39:04.594Z,9.65
2023-05-22T09:41:33.844Z,9.40
2023-05-22T09:44:01.727Z,9.50
2023-05-22T09:46:28.698Z,10.77
2023-05-22T09:48:57.238Z,9.38
2023-05-22T09:51:24.967Z,11.07
2023-05-22T09:53:51.743Z,10.73
2023-05-22T09:56:30.750Z,8.82
2023-05-22T09:59:05.512Z,9.32
2023-05-22T10:01:33.316Z,10.45
2023-05-22T10:04:00.575Z,9.00
2023-05-22T10:06:28.764Z,9.75
2023-05-22T10:08:58.581Z,9.25
2023-05-22T10:11:26.351Z,10.73
2023-05-22T10:13:52.982Z,10.38
2023-05-22T10:16:25.246Z,9.82
2023-05-22T10:18:55.007Z,10.77
2023-05-22T10:21:36.675Z,9.45
2023-05-22T10:26:31.493Z,10.60
2023-05-22T10:29:05.139Z,9.32
2023-05-22T10:31:47.911Z,9.98
2023-05-22T10:34:18.616Z,10.00
2023-05-22T10:37:05.991Z,10.07
2023-05-22T10:39:43.791Z,9.55
2023-05-22T10:42:16.408Z,10.05
2023-05-22T10:44:46.187Z,9.50
2023-05-22T10:47:12.422Z,9.05
2023-05-22T10:50:02.143Z,9.23
2023-05-22T10:52:28.430Z,8.48
2023-05-22T10:54:54.661Z,9.77
2023-05-22T10:57:26.903Z,11.27
2023-05-22T11:00:05.490Z,9.85
2023-05-22T11:02:37.976Z,8.75
2023-05-22T11:05:20.787Z,8.82
2023-05-22T11:07:49.744Z,8.98
2023-05-22T11:10:25.706Z,9.18
2023-05-22T11:13:05.609Z,9.77
2023-05-22T11:15:31.924Z,9.32
2023-05-22T11:18:03.140Z,9.63
2023-05-22T11:20:31.574Z,9.18
2023-05-22T11:23:02.174Z,9.10
2023-05-22T11:25:28.711Z,8.27
2023-05-22T11:28:02.359Z,8.70
2023-05-22T11:30:39.154Z,8.10
2023-05-22T11:33:05.811Z,8.40
2023-05-22T11:35:34.404Z,8.75
2023-05-22T11:38:03.705Z,8.48
2023-05-22T11:40:31.728Z,8.48
2023-05-22T11:42:58.040Z,7.75
2023-05-22T11:45:24.479Z,9.20
2023-05-22T11:47:50.844Z,8.27
2023-05-22T11:50:33.316Z,7.60
2023-05-22T11:53:05.849Z,8.00
2023-05-22T11:55:33.065Z,7.65
2023-05-22T11:58:01.789Z,7.97
2023-05-22T12:00:28.267Z,9.70
2023-05-22T12:02:54.681Z,8.18
2023-05-22T12:05:21.480Z,5.97
2023-05-22T12:07:47.948Z,6.80
2023-05-22T12:10:14.497Z,6.03
2023-05-22T12:12:40.772Z,6.57
2023-05-22T12:15:10.796Z,8.18
2023-05-22T12:17:38.945Z,6.72
2023-05-22T12:20:12.035Z,6.22
2023-05-22T12:22:42.519Z,6.93
2023-05-22T12:25:15.536Z,9.02
2023-05-22T12:27:42.937Z,8.30
2023-05-22T12:30:10.723Z,7.43
2023-05-22T12:32:37.222Z,7.18
2023-05-22T12:35:06.927Z,7.82
2023-05-22T12:37:35.889Z,7.18
2023-05-22T12:40:04.205Z,7.28
2023-05-22T12:42:30.538Z,8.85
2023-05-22T12:44:57.807Z,8.52
2023-05-22T12:47:26.820Z,7.65
2023-05-22T12:49:55.291Z,8.13
2023-05-22T12:52:21.593Z,7.95
2023-05-22T12:54:50.839Z,8.35
2023-05-22T12:57:17.177Z,7.90
2023-05-22T12:59:49.662Z,7.45
2023-05-22T13:02:18.790Z,7.63
2023-05-22T13:04:45.241Z,7.90
2023-05-22T13:07:11.485Z,7.68
2023-05-22T13:09:37.749Z,7.72
2023-05-22T13:12:04.171Z,8.60
2023-05-22T13:14:30.486Z,8.77
2023-05-22T13:17:00.181Z,8.98
2023-05-22T13:19:26.519Z,9.18
2023-05-22T13:21:58.446Z,8.88
2023-05-22T13:24:24.792Z,8.52
2023-05-22T13:26:51.300Z,9.55
2023-05-22T13:29:17.988Z,7.47
2023-05-22T13:31:44.253Z,8.75
2023-05-22T13:34:10.543Z,9.02
2023-05-22T13:36:37.996Z,7.75
2023-05-22T13:39:04.523Z,7.03
2023-05-22T13:41:32.198Z,6.78
2023-05-22T13:44:05.881Z,6.15
2023-05-22T13:46:32.326Z,6.28
2023-05-22T13:48:59.181Z,6.78
2023-05-22T13:51:25.445Z,6.65
2023-05-22T13:53:51.912Z,6.07
2023-05-22T13:56:18.290Z,6.93
2023-05-22T13:58:44.561Z,5.78
2023-05-22T14:01:10.946Z,6.30
2023-05-22T14:03:39.932Z,6.88
2023-05-22T14:06:06.459Z,6.15
2023-05-22T14:08:34.702Z,6.20
2023-05-22T14:11:01.102Z,6.65
2023-05-22T14:13:29.833Z,5.40
2023-05-22T14:15:56.208Z,5.80
2023-05-22T14:18:32.521Z,5.13
2023-05-22T14:20:59.037Z,5.60
2023-05-22T14:23:25.976Z,5.88
2023-05-22T14:25:52.577Z,5.13
2023-05-22T14:28:23.136Z,5.30
2023-05-22T14:30:51.209Z,5.32
2023-05-22T14:33:17.460Z,5.20
2023-05-22T14:35:45.809Z,5.15
2023-05-22T14:38:13.317Z,5.60
2023-05-22T14:40:39.587Z,4.90
2023-05-22T14:43:06.025Z,5.47
2023-05-22T14:45:32.303Z,5.72
2023-05-22T14:48:00.197Z,5.95
2023-05-22T14:50:27.603Z,4.75
2023-05-22T14:52:53.917Z,5.40
2023-05-22T14:55:21.414Z,4.97
2023-05-22T14:57:47.986Z,5.47
2023-05-22T15:00:14.382Z,5.80
2023-05-22T15:02:40.765Z,4.57
2023-05-22T15:05:08.985Z,4.40
2023-05-22T15:07:43.320Z,3.85
2023-05-22T15:10:15.603Z,4.50
2023-05-22T15:12:41.931Z,4.00
2023-05-22T15:15:09.813Z,4.35
2023-05-22T15:17:42.621Z,3.97
2023-05-22T15:20:09.578Z,3.75
2023-05-22T15:22:38.860Z,4.55
2023-05-22T15:25:22.097Z,4.13
2023-05-22T15:27:48.413Z,3.55
2023-05-22T15:30:14.825Z,3.72
2023-05-22T15:32:41.136Z,3.42
2023-05-22T15:35:07.782Z,4.13
2023-05-22T15:37:34.404Z,3.22
2023-05-22T15:40:03.722Z,3.88
2023-05-22T15:42:30.190Z,3.42
2023-05-22T15:44:57.975Z,3.63
2023-05-22T15:47:24.310Z,3.60
2023-05-22T15:49:50.691Z,3.13
2023-05-22T15:52:17.007Z,3.10
2023-05-22T15:54:45.980Z,3.67
2023-05-22T15:57:12.267Z,2.88
2023-05-22T15:59:40.350Z,3.08
2023-05-22T16:02:07.194Z,2.45
2023-05-22T16:04:33.582Z,2.78
2023-05-22T16:07:00.122Z,3.20
2023-05-22T16:09:26.419Z,2.95
2023-05-22T16:11:52.739Z,2.50
2023-05-22T16:14:18.978Z,2.47
2023-05-22T16:16:45.256Z,2.50
2023-05-22T16:19:11.665Z,2.67
2023-05-22T16:21:44.656Z,2.20
2023-05-22T16:24:13.264Z,2.72
2023-05-22T16:26:39.730Z,2.75
2023-05-22T16:29:06.995Z,2.40
2023-05-22T16:31:33.323Z,3.00
2023-05-22T16:34:08.625Z,2.83
2023-05-22T16:36:34.865Z,2.35
2023-05-22T16:39:01.102Z,2.40
2023-05-22T16:41:29.744Z,2.90
2023-05-22T16:43:56.290Z,2.55
2023-05-22T16:46:22.622Z,2.88
2023-05-22T16:48:57.655Z,3.03
2023-05-22T16:51:23.978Z,3.15
2023-05-22T16:53:50.665Z,3.08
2023-05-22T16:56:18.020Z,3.00
2023-05-22T16:58:44.578Z,2.80
2023-05-22T17:01:13.917Z,2.85
2023-05-22T17:03:42.173Z,2.58
2023-05-22T17:06:08.581Z,2.80
2023-05-22T17:08:35.930Z,2.83
2023-05-22T17:11:02.197Z,2.95
2023-05-22T17:13:28.524Z,2.40
2023-05-22T17:15:54.935Z,2.80
2023-05-22T17:18:21.486Z,2.90
2023-05-22T17:20:51.237Z,2.28
2023-05-22T17:23:19.023Z,2.90
2023-05-22T17:25:48.346Z,2.88
2023-05-22T17:28:14.910Z,3.03
2023-05-22T17:30:45.057Z,2.65
2023-05-22T17:35:45.898Z,3.42
2023-05-22T17:38:12.499Z,2.75
2023-05-22T17:40:45.452Z,3.65
2023-05-22T17:43:12.565Z,3.15
2023-05-22T17:45:49.817Z,3.65
2023-05-22T17:48:21.249Z,3.97
2023-05-22T17:50:49.673Z,3.42
2023-05-22T17:53:20.326Z,3.45
2023-05-22T17:55:47.147Z,3.67
2023-05-22T17:58:16.779Z,3.45
2023-05-22T18:00:43.165Z,3.25
2023-05-22T18:03:14.823Z,3.10
2023-05-22T18:05:41.358Z,3.53
2023-05-22T18:08:10.356Z,3.22
2023-05-22T18:10:38.646Z,4.10
2023-05-22T18:13:08.705Z,3.85
2023-05-22T18:15:35.031Z,4.40
2023-05-22T18:18:08.150Z,3.70
2023-05-22T18:20:40.205Z,3.75
2023-05-22T18:23:07.053Z,4.63
2023-05-22T18:25:33.411Z,3.83
2023-05-22T18:27:59.675Z,3.67
2023-05-22T18:30:25.972Z,4.22
2023-05-22T18:32:53.755Z,4.28
2023-05-22T18:35:23.102Z,5.05
2023-05-22T18:37:54.830Z,4.30
2023-05-22T18:40:23.463Z,4.40
2023-05-22T18:42:49.911Z,4.45
2023-05-22T18:45:16.231Z,3.80
2023-05-22T18:47:42.505Z,4.80
2023-05-22T18:50:11.957Z,4.30
2023-05-22T18:52:38.236Z,3.90
2023-05-22T18:55:04.708Z,3.80
2023-05-22T18:57:34.039Z,3.88
2023-05-22T19:00:01.703Z,4.25
2023-05-22T19:02:32.894Z,3.95
2023-05-22T19:05:01.569Z,4.32
2023-05-22T19:07:28.054Z,5.13
2023-05-22T19:09:54.385Z,4.20
2023-05-22T19:12:20.622Z,4.20
2023-05-22T19:14:48.037Z,4.40
2023-05-22T19:17:17.036Z,4.53
2023-05-22T19:19:43.327Z,4.40
2023-05-22T19:22:15.372Z,4.47
2023-05-22T19:24:43.525Z,4.47
2023-05-22T19:27:12.427Z,4.70
2023-05-22T19:29:38.721Z,5.10
2023-05-22T19:32:05.135Z,4.40
2023-05-22T19:34:31.364Z,4.95
2023-05-22T19:36:57.665Z,5.07
2023-05-22T19:39:24.213Z,4.70
2023-05-22T19:41:50.478Z,4.47
2023-05-22T19:44:16.737Z,4.88
2023-05-22T19:46:43.012Z,4.45
2023-05-22T19:49:09.475Z,4.85
2023-05-22T19:51:38.241Z,4.88
2023-05-22T19:54:05.573Z,5.40
2023-05-22T19:56:31.827Z,5.15
2023-05-22T19:59:03.112Z,5.80
2023-05-22T20:01:29.431Z,5.95
2023-05-22T20:03:55.872Z,5.38
2023-05-22T20:06:22.582Z,5.90
2023-05-22T20:08:48.833Z,5.55
2023-05-22T20:11:15.073Z,5.10
2023-05-22T20:13:42.482Z,4.82
2023-05-22T20:16:11.150Z,6.03
2023-05-22T20:18:37.811Z,5.40
2023-05-22T20:21:04.699Z,5.10
2023-05-22T20:23:30.945Z,5.75
2023-05-22T20:25:57.228Z,5.22
2023-05-22T20:28:23.649Z,6.10
2023-05-22T20:30:51.065Z,6.80
2023-05-22T20:33:17.396Z,5.90
2023-05-22T20:35:46.479Z,6.88
2023-05-22T20:38:13.904Z,7.40
2023-05-22T20:40:40.738Z,6.22
2023-05-22T20:43:07.056Z,6.97
2023-05-22T20:45:35.910Z,6.78
2023-05-22T20:48:04.953Z,6.63
2023-05-22T20:50:31.293Z,6.22
2023-05-22T20:52:57.670Z,7.03
2023-05-22T20:55:23.976Z,6.68
2023-05-22T20:57:50.276Z,6.40
2023-05-22T21:00:22.975Z,6.32
2023-05-22T21:02:49.274Z,5.45
2023-05-22T21:05:15.569Z,4.80
2023-05-22T21:07:41.839Z,4.80
2023-05-22T21:10:08.435Z,4.55
2023-05-22T21:12:38.402Z,4.00
2023-05-22T21:15:05.042Z,4.45
2023-05-22T21:17:41.933Z,3.72
2023-05-22T21:20:17.123Z,3.03
2023-05-22T21:22:43.358Z,3.97
2023-05-22T21:25:09.807Z,2.92
2023-05-22T21:27:38.345Z,3.05
2023-05-22T21:30:04.868Z,2.50
2023-05-22T21:32:31.208Z,3.50
2023-05-22T21:34:57.511Z,3.17
2023-05-22T21:37:23.807Z,3.08
2023-05-22T21:39:52.600Z,3.42
2023-05-22T21:42:25.855Z,3.60
2023-05-22T21:44:52.371Z,3.00
2023-05-22T21:47:21.194Z,2.72
2023-05-22T21:49:50.109Z,3.30
2023-05-22T21:52:16.406Z,3.90
2023-05-22T21:54:42.658Z,2.97
2023-05-22T21:57:08.909Z,3.15
2023-05-22T21:59:35.312Z,3.53
2023-05-22T22:02:04.269Z,3.03
2023-05-22T22:04:30.585Z,3.20
2023-05-22T22:06:59.116Z,3.55
2023-05-22T22:09:31.375Z,4.05
2023-05-22T22:11:58.386Z,3.53
2023-05-22T22:14:24.632Z,4.07
2023-05-22T22:16:51.024Z,4.25
2023-05-22T22:19:17.340Z,3.53
2023-05-22T22:21:43.777Z,3.78
2023-05-22T22:24:12.986Z,3.58
2023-05-22T22:26:39.271Z,4.18
2023-05-22T22:29:05.725Z,3.70
2023-05-22T22:31:36.268Z,3.78
2023-05-22T22:34:02.660Z,4.28
2023-05-22T22:36:30.074Z,4.10
2023-05-22T22:38:59.033Z,3.83
2023-05-22T22:41:28.193Z,3.67
2023-05-22T22:43:54.822Z,4.40
2023-05-22T22:46:21.197Z,4.35
2023-05-22T22:48:47.504Z,4.95
2023-05-22T22:51:13.777Z,4.30
2023-05-22T22:53:42.475Z,4.43
2023-05-22T22:56:08.872Z,4.57
2023-05-22T22:58:39.013Z,4.32
2023-05-22T23:01:05.381Z,5.10
2023-05-22T23:03:31.669Z,5.30
2023-05-22T23:06:03.118Z,4.95
2023-05-22T23:08:29.437Z,5.43
2023-05-22T23:10:55.846Z,4.80
2023-05-22T23:13:22.106Z,4.63
2023-05-22T23:15:50.694Z,5.10
2023-05-22T23:18:19.515Z,5.22
2023-05-22T23:20:45.858Z,4.95
2023-05-22T23:23:16.512Z,5.28
2023-05-22T23:25:47.257Z,4.90
2023-05-22T23:28:13.539Z,4.68
2023-05-22T23:30:39.836Z,5.75
2023-05-22T23:33:09.009Z,4.82
2023-05-22T23:35:36.715Z,5.43
2023-05-22T23:38:03.159Z,5.47
2023-05-22T23:40:35.233Z,6.32
2023-05-22T23:43:07.881Z,5.13
2023-05-22T23:45:34.301Z,5.88
2023-05-22T23:48:00.677Z,6.40
2023-05-22T23:50:26.953Z,5.50
2023-05-22T23:52:53.248Z,5.35
2023-05-22T23:55:19.580Z,6.38
2023-05-22T23:57:45.887Z,5.15
